sensor_id;sensor_type;location;lat;lon;timestamp;P1;durP1;ratioP1;P2;durP2;ratioP2
74658;SDS011;63186;51.204;6.536;2023-06-14T00:01:31;7.65;;;3.83;;
74658;SDS011;63186;51.204;6.536;2023-06-14T00:03:59;8.70;;;3.80;;
74658;SDS011;63186;51.204;6.536;2023-06-14T00:06:26;8.10;;;4.13;;
74658;SDS011;63186;51.204;6.536;2023-06-14T00:08:52;8.70;;;3.95;;
74658;SDS011;63186;51.204;6.536;2023-06-14T00:11:17;7.93;;;4.23;;
74658;SDS011;63186;51.204;6.536;2023-06-14T00:13:42;11.25;;;3.97;;
74658;SDS011;63186;51.204;6.536;2023-06-14T00:16:08;7.70;;;4.18;;
74658;SDS011;63186;51.204;6.536;2023-06-14T00:18:33;9.90;;;4.38;;
74658;SDS011;63186;51.204;6.536;2023-06-14T00:20:59;7.60;;;3.92;;
74658;SDS011;63186;51.204;6.536;2023-06-14T00:23:24;8.05;;;3.88;;
74658;SDS011;63186;51.204;6.536;2023-06-14T00:25:50;8.73;;;4.70;;
74658;SDS011;63186;51.204;6.536;2023-06-14T00:28:18;6.85;;;3.30;;
74658;SDS011;63186;51.204;6.536;2023-06-14T00:30:44;8.82;;;4.65;;
74658;SDS011;63186;51.204;6.536;2023-06-14T00:33:11;10.77;;;4.32;;
74658;SDS011;63186;51.204;6.536;2023-06-14T00:35:36;6.65;;;3.60;;
74658;SDS011;63186;51.204;6.536;2023-06-14T00:38:02;8.50;;;4.73;;
74658;SDS011;63186;51.204;6.536;2023-06-14T00:40:27;7.88;;;4.18;;
74658;SDS011;63186;51.204;6.536;2023-06-14T00:42:52;10.13;;;4.60;;
74658;SDS011;63186;51.204;6.536;2023-06-14T00:45:18;8.93;;;3.83;;
74658;SDS011;63186;51.204;6.536;2023-06-14T00:47:43;7.50;;;4.00;;
74658;SDS011;63186;51.204;6.536;2023-06-14T00:50:11;8.15;;;4.03;;
74658;SDS011;63186;51.204;6.536;2023-06-14T00:52:36;7.95;;;4.72;;
74658;SDS011;63186;51.204;6.536;2023-06-14T00:55:02;10.18;;;4.07;;
74658;SDS011;63186;51.204;6.536;2023-06-14T00:57:27;8.73;;;3.88;;
74658;SDS011;63186;51.204;6.536;2023-06-14T00:59:54;7.85;;;3.78;;
74658;SDS011;63186;51.204;6.536;2023-06-14T01:02:20;8.18;;;3.85;;
74658;SDS011;63186;51.204;6.536;2023-06-14T01:04:46;7.85;;;4.22;;
74658;SDS011;63186;51.204;6.536;2023-06-14T01:15:37;8.95;;;3.70;;
74658;SDS011;63186;51.204;6.536;2023-06-14T01:18:03;8.48;;;4.25;;
74658;SDS011;63186;51.204;6.536;2023-06-14T01:20:30;9.32;;;4.30;;
74658;SDS011;63186;51.204;6.536;2023-06-14T01:22:57;9.45;;;4.47;;
74658;SDS011;63186;51.204;6.536;2023-06-14T01:25:23;11.70;;;4.65;;
74658;SDS011;63186;51.204;6.536;2023-06-14T01:27:49;8.45;;;4.95;;
74658;SDS011;63186;51.204;6.536;2023-06-14T01:30:16;8.23;;;4.38;;
74658;SDS011;63186;51.204;6.536;2023-06-14T01:32:42;7.13;;;3.97;;
74658;SDS011;63186;51.204;6.536;2023-06-14T01:35:08;7.82;;;3.90;;
74658;SDS011;63186;51.204;6.536;2023-06-14T01:37:34;8.38;;;3.95;;
74658;SDS011;63186;51.204;6.536;2023-06-14T01:40:01;8.13;;;4.18;;
74658;SDS011;63186;51.204;6.536;2023-06-14T01:42:28;8.70;;;4.30;;
74658;SDS011;63186;51.204;6.536;2023-06-14T01:44:55;8.15;;;4.10;;
74658;SDS011;63186;51.204;6.536;2023-06-14T01:47:21;8.50;;;4.00;;
74658;SDS011;63186;51.204;6.536;2023-06-14T01:49:46;9.77;;;4.80;;
74658;SDS011;63186;51.204;6.536;2023-06-14T01:52:12;9.27;;;4.43;;
74658;SDS011;63186;51.204;6.536;2023-06-14T01:54:38;9.27;;;4.60;;
74658;SDS011;63186;51.204;6.536;2023-06-14T01:57:07;7.93;;;4.00;;
74658;SDS011;63186;51.204;6.536;2023-06-14T01:59:33;8.80;;;4.10;;
74658;SDS011;63186;51.204;6.536;2023-06-14T02:02:00;9.77;;;4.03;;
74658;SDS011;63186;51.204;6.536;2023-06-14T02:04:25;9.27;;;4.45;;
74658;SDS011;63186;51.204;6.536;2023-06-14T02:06:50;8.60;;;5.07;;
74658;SDS011;63186;51.204;6.536;2023-06-14T02:09:15;9.57;;;4.53;;
74658;SDS011;63186;51.204;6.536;2023-06-14T02:11:41;8.83;;;4.20;;
74658;SDS011;63186;51.204;6.536;2023-06-14T02:14:06;8.10;;;4.30;;
74658;SDS011;63186;51.204;6.536;2023-06-14T02:16:32;8.13;;;4.38;;
74658;SDS011;63186;51.204;6.536;2023-06-14T02:18:57;8.32;;;4.43;;
74658;SDS011;63186;51.204;6.536;2023-06-14T02:21:23;9.90;;;4.53;;
74658;SDS011;63186;51.204;6.536;2023-06-14T02:23:48;9.00;;;4.60;;
74658;SDS011;63186;51.204;6.536;2023-06-14T02:26:13;8.80;;;4.23;;
74658;SDS011;63186;51.204;6.536;2023-06-14T02:28:38;8.70;;;4.70;;
74658;SDS011;63186;51.204;6.536;2023-06-14T02:31:04;10.03;;;4.30;;
74658;SDS011;63186;51.204;6.536;2023-06-14T02:33:29;10.37;;;5.07;;
74658;SDS011;63186;51.204;6.536;2023-06-14T02:35:54;12.20;;;4.50;;
74658;SDS011;63186;51.204;6.536;2023-06-14T02:38:21;9.02;;;4.85;;
74658;SDS011;63186;51.204;6.536;2023-06-14T02:40:46;9.00;;;4.50;;
74658;SDS011;63186;51.204;6.536;2023-06-14T02:43:12;11.60;;;4.93;;
74658;SDS011;63186;51.204;6.536;2023-06-14T02:45:37;9.27;;;4.43;;
74658;SDS011;63186;51.204;6.536;2023-06-14T02:48:02;9.17;;;4.47;;
74658;SDS011;63186;51.204;6.536;2023-06-14T02:50:28;9.52;;;4.32;;
74658;SDS011;63186;51.204;6.536;2023-06-14T02:52:54;8.75;;;4.40;;
74658;SDS011;63186;51.204;6.536;2023-06-14T02:55:22;9.68;;;4.38;;
74658;SDS011;63186;51.204;6.536;2023-06-14T02:57:47;9.18;;;4.05;;
74658;SDS011;63186;51.204;6.536;2023-06-14T03:00:13;8.82;;;5.75;;
74658;SDS011;63186;51.204;6.536;2023-06-14T03:02:39;9.25;;;4.55;;
74658;SDS011;63186;51.204;6.536;2023-06-14T03:05:04;8.15;;;4.72;;
74658;SDS011;63186;51.204;6.536;2023-06-14T03:07:31;8.98;;;4.25;;
74658;SDS011;63186;51.204;6.536;2023-06-14T03:09:57;8.90;;;4.60;;
74658;SDS011;63186;51.204;6.536;2023-06-14T03:12:22;8.90;;;4.72;;
74658;SDS011;63186;51.204;6.536;2023-06-14T03:14:48;8.85;;;5.07;;
74658;SDS011;63186;51.204;6.536;2023-06-14T03:17:15;8.75;;;4.45;;
74658;SDS011;63186;51.204;6.536;2023-06-14T03:19:42;8.90;;;4.55;;
74658;SDS011;63186;51.204;6.536;2023-06-14T03:22:07;9.38;;;4.88;;
74658;SDS011;63186;51.204;6.536;2023-06-14T03:24:33;9.13;;;4.65;;
74658;SDS011;63186;51.204;6.536;2023-06-14T03:27:01;9.40;;;4.72;;
74658;SDS011;63186;51.204;6.536;2023-06-14T03:29:27;9.07;;;4.80;;
74658;SDS011;63186;51.204;6.536;2023-06-14T03:31:59;8.27;;;4.57;;
74658;SDS011;63186;51.204;6.536;2023-06-14T03:34:25;8.77;;;4.35;;
74658;SDS011;63186;51.204;6.536;2023-06-14T03:36:51;9.55;;;5.25;;
74658;SDS011;63186;51.204;6.536;2023-06-14T03:39:16;12.13;;;4.60;;
74658;SDS011;63186;51.204;6.536;2023-06-14T03:41:42;8.77;;;4.13;;
74658;SDS011;63186;51.204;6.536;2023-06-14T03:44:07;8.30;;;4.23;;
74658;SDS011;63186;51.204;6.536;2023-06-14T03:46:32;7.30;;;4.03;;
74658;SDS011;63186;51.204;6.536;2023-06-14T03:48:58;8.93;;;4.57;;
74658;SDS011;63186;51.204;6.536;2023-06-14T03:51:23;7.40;;;3.67;;
74658;SDS011;63186;51.204;6.536;2023-06-14T03:53:50;7.82;;;4.40;;
74658;SDS011;63186;51.204;6.536;2023-06-14T03:56:15;9.32;;;4.50;;
74658;SDS011;63186;51.204;6.536;2023-06-14T03:58:40;7.37;;;4.30;;
74658;SDS011;63186;51.204;6.536;2023-06-14T04:01:06;7.57;;;3.97;;
74658;SDS011;63186;51.204;6.536;2023-06-14T04:03:32;9.10;;;4.28;;
74658;SDS011;63186;51.204;6.536;2023-06-14T04:05:58;10.13;;;4.43;;
74658;SDS011;63186;51.204;6.536;2023-06-14T04:08:24;8.73;;;4.22;;
74658;SDS011;63186;51.204;6.536;2023-06-14T04:10:50;8.55;;;4.25;;
74658;SDS011;63186;51.204;6.536;2023-06-14T04:13:15;7.90;;;4.13;;
74658;SDS011;63186;51.204;6.536;2023-06-14T04:15:40;8.43;;;4.77;;
74658;SDS011;63186;51.204;6.536;2023-06-14T04:18:07;9.98;;;4.55;;
74658;SDS011;63186;51.204;6.536;2023-06-14T04:20:32;9.88;;;4.40;;
74658;SDS011;63186;51.204;6.536;2023-06-14T04:23:10;8.70;;;4.32;;
74658;SDS011;63186;51.204;6.536;2023-06-14T04:25:37;8.95;;;4.65;;
74658;SDS011;63186;51.204;6.536;2023-06-14T04:28:02;8.37;;;4.23;;
74658;SDS011;63186;51.204;6.536;2023-06-14T04:30:28;7.85;;;4.10;;
74658;SDS011;63186;51.204;6.536;2023-06-14T04:32:56;7.60;;;4.13;;
74658;SDS011;63186;51.204;6.536;2023-06-14T04:35:21;9.17;;;4.50;;
74658;SDS011;63186;51.204;6.536;2023-06-14T04:37:48;7.55;;;4.03;;
74658;SDS011;63186;51.204;6.536;2023-06-14T04:40:13;8.63;;;4.00;;
74658;SDS011;63186;51.204;6.536;2023-06-14T04:42:39;8.82;;;4.65;;
74658;SDS011;63186;51.204;6.536;2023-06-14T04:45:05;8.48;;;4.38;;
74658;SDS011;63186;51.204;6.536;2023-06-14T04:47:32;8.20;;;3.97;;
74658;SDS011;63186;51.204;6.536;2023-06-14T04:49:57;9.25;;;4.32;;
74658;SDS011;63186;51.204;6.536;2023-06-14T04:52:23;8.65;;;4.30;;
74658;SDS011;63186;51.204;6.536;2023-06-14T04:54:51;9.55;;;4.22;;
74658;SDS011;63186;51.204;6.536;2023-06-14T04:57:17;7.53;;;3.90;;
74658;SDS011;63186;51.204;6.536;2023-06-14T04:59:47;7.50;;;3.80;;
74658;SDS011;63186;51.204;6.536;2023-06-14T05:02:12;7.18;;;3.33;;
74658;SDS011;63186;51.204;6.536;2023-06-14T05:04:38;9.02;;;4.13;;
74658;SDS011;63186;51.204;6.536;2023-06-14T05:07:04;8.48;;;3.83;;
74658;SDS011;63186;51.204;6.536;2023-06-14T05:09:31;11.93;;;4.00;;
74658;SDS011;63186;51.204;6.536;2023-06-14T05:11:56;8.77;;;4.13;;
74658;SDS011;63186;51.204;6.536;2023-06-14T05:14:23;7.20;;;3.55;;
74658;SDS011;63186;51.204;6.536;2023-06-14T05:16:48;8.75;;;4.00;;
74658;SDS011;63186;51.204;6.536;2023-06-14T05:19:14;6.37;;;3.80;;
74658;SDS011;63186;51.204;6.536;2023-06-14T05:21:39;7.83;;;4.00;;
74658;SDS011;63186;51.204;6.536;2023-06-14T05:24:04;8.10;;;3.83;;
74658;SDS011;63186;51.204;6.536;2023-06-14T05:26:30;7.68;;;4.00;;
74658;SDS011;63186;51.204;6.536;2023-06-14T05:28:56;9.98;;;4.22;;
74658;SDS011;63186;51.204;6.536;2023-06-14T05:31:24;8.93;;;3.95;;
74658;SDS011;63186;51.204;6.536;2023-06-14T05:33:50;8.32;;;4.00;;
74658;SDS011;63186;51.204;6.536;2023-06-14T05:36:16;7.40;;;4.25;;
74658;SDS011;63186;51.204;6.536;2023-06-14T05:38:41;7.90;;;3.83;;
74658;SDS011;63186;51.204;6.536;2023-06-14T05:41:06;8.60;;;3.93;;
74658;SDS011;63186;51.204;6.536;2023-06-14T05:43:32;8.10;;;3.60;;
74658;SDS011;63186;51.204;6.536;2023-06-14T05:45:57;10.00;;;4.00;;
74658;SDS011;63186;51.204;6.536;2023-06-14T05:48:22;8.23;;;3.78;;
74658;SDS011;63186;51.204;6.536;2023-06-14T05:50:47;7.10;;;3.73;;
74658;SDS011;63186;51.204;6.536;2023-06-14T05:53:13;9.43;;;3.87;;
74658;SDS011;63186;51.204;6.536;2023-06-14T05:55:38;9.37;;;3.70;;
74658;SDS011;63186;51.204;6.536;2023-06-14T05:58:03;11.97;;;3.37;;
74658;SDS011;63186;51.204;6.536;2023-06-14T06:00:29;8.87;;;4.00;;
74658;SDS011;63186;51.204;6.536;2023-06-14T06:02:54;8.73;;;3.57;;
74658;SDS011;63186;51.204;6.536;2023-06-14T06:05:22;7.45;;;3.60;;
74658;SDS011;63186;51.204;6.536;2023-06-14T06:07:47;8.63;;;4.20;;
74658;SDS011;63186;51.204;6.536;2023-06-14T06:10:13;8.00;;;3.60;;
74658;SDS011;63186;51.204;6.536;2023-06-14T06:12:38;8.23;;;3.70;;
74658;SDS011;63186;51.204;6.536;2023-06-14T06:15:03;7.40;;;4.10;;
74658;SDS011;63186;51.204;6.536;2023-06-14T06:17:29;8.63;;;3.33;;
74658;SDS011;63186;51.204;6.536;2023-06-14T06:19:55;9.90;;;3.47;;
74658;SDS011;63186;51.204;6.536;2023-06-14T06:22:20;6.70;;;3.53;;
74658;SDS011;63186;51.204;6.536;2023-06-14T06:24:45;7.50;;;3.53;;
74658;SDS011;63186;51.204;6.536;2023-06-14T06:27:11;8.43;;;2.83;;
74658;SDS011;63186;51.204;6.536;2023-06-14T06:29:37;7.95;;;3.70;;
74658;SDS011;63186;51.204;6.536;2023-06-14T06:32:03;8.88;;;3.20;;
74658;SDS011;63186;51.204;6.536;2023-06-14T06:34:28;8.20;;;3.28;;
74658;SDS011;63186;51.204;6.536;2023-06-14T06:36:54;7.30;;;3.65;;
74658;SDS011;63186;51.204;6.536;2023-06-14T06:39:20;7.28;;;3.50;;
74658;SDS011;63186;51.204;6.536;2023-06-14T06:41:45;8.38;;;3.22;;
74658;SDS011;63186;51.204;6.536;2023-06-14T06:44:10;6.93;;;3.03;;
74658;SDS011;63186;51.204;6.536;2023-06-14T06:46:36;6.80;;;3.20;;
74658;SDS011;63186;51.204;6.536;2023-06-14T06:49:05;6.47;;;3.20;;
74658;SDS011;63186;51.204;6.536;2023-06-14T06:51:31;6.97;;;3.28;;
74658;SDS011;63186;51.204;6.536;2023-06-14T06:53:56;6.53;;;3.33;;
74658;SDS011;63186;51.204;6.536;2023-06-14T06:56:21;9.83;;;2.97;;
74658;SDS011;63186;51.204;6.536;2023-06-14T06:58:48;10.63;;;3.45;;
74658;SDS011;63186;51.204;6.536;2023-06-14T07:01:14;9.07;;;3.63;;
74658;SDS011;63186;51.204;6.536;2023-06-14T07:03:39;6.47;;;3.00;;
74658;SDS011;63186;51.204;6.536;2023-06-14T07:06:05;7.13;;;3.27;;
74658;SDS011;63186;51.204;6.536;2023-06-14T07:08:30;7.50;;;3.63;;
74658;SDS011;63186;51.204;6.536;2023-06-14T07:10:56;6.60;;;2.97;;
74658;SDS011;63186;51.204;6.536;2023-06-14T07:13:21;6.03;;;2.63;;
74658;SDS011;63186;51.204;6.536;2023-06-14T07:15:46;5.37;;;2.43;;
74658;SDS011;63186;51.204;6.536;2023-06-14T07:18:12;6.85;;;2.58;;
74658;SDS011;63186;51.204;6.536;2023-06-14T07:20:37;6.25;;;2.67;;
74658;SDS011;63186;51.204;6.536;2023-06-14T07:23:03;6.43;;;2.50;;
74658;SDS011;63186;51.204;6.536;2023-06-14T07:25:28;4.65;;;2.25;;
74658;SDS011;63186;51.204;6.536;2023-06-14T07:27:54;4.68;;;2.17;;
74658;SDS011;63186;51.204;6.536;2023-06-14T07:30:19;5.53;;;2.33;;
74658;SDS011;63186;51.204;6.536;2023-06-14T07:32:45;5.97;;;2.08;;
74658;SDS011;63186;51.204;6.536;2023-06-14T07:35:10;5.33;;;2.10;;
74658;SDS011;63186;51.204;6.536;2023-06-14T07:37:35;4.50;;;2.10;;
74658;SDS011;63186;51.204;6.536;2023-06-14T07:40:01;5.15;;;2.22;;
74658;SDS011;63186;51.204;6.536;2023-06-14T07:42:31;5.28;;;2.00;;
74658;SDS011;63186;51.204;6.536;2023-06-14T07:44:57;6.90;;;2.08;;
74658;SDS011;63186;51.204;6.536;2023-06-14T07:47:22;2.87;;;1.47;;
74658;SDS011;63186;51.204;6.536;2023-06-14T07:49:47;3.77;;;1.40;;
74658;SDS011;63186;51.204;6.536;2023-06-14T07:52:13;3.43;;;1.60;;
74658;SDS011;63186;51.204;6.536;2023-06-14T07:54:38;2.92;;;1.48;;
74658;SDS011;63186;51.204;6.536;2023-06-14T07:57:03;2.97;;;1.30;;
74658;SDS011;63186;51.204;6.536;2023-06-14T07:59:29;3.42;;;1.60;;
74658;SDS011;63186;51.204;6.536;2023-06-14T08:01:54;2.40;;;1.23;;
74658;SDS011;63186;51.204;6.536;2023-06-14T08:04:20;7.23;;;1.70;;
74658;SDS011;63186;51.204;6.536;2023-06-14T08:06:45;4.33;;;1.40;;
74658;SDS011;63186;51.204;6.536;2023-06-14T08:09:11;4.05;;;1.40;;
74658;SDS011;63186;51.204;6.536;2023-06-14T08:11:37;5.38;;;1.42;;
74658;SDS011;63186;51.204;6.536;2023-06-14T08:14:02;5.07;;;1.20;;
74658;SDS011;63186;51.204;6.536;2023-06-14T08:16:28;2.27;;;1.23;;
74658;SDS011;63186;51.204;6.536;2023-06-14T08:18:55;1.93;;;1.10;;
74658;SDS011;63186;51.204;6.536;2023-06-14T08:21:20;2.90;;;1.30;;
74658;SDS011;63186;51.204;6.536;2023-06-14T08:23:46;3.43;;;1.33;;
74658;SDS011;63186;51.204;6.536;2023-06-14T08:26:11;2.23;;;1.07;;
74658;SDS011;63186;51.204;6.536;2023-06-14T08:28:36;2.80;;;1.42;;
74658;SDS011;63186;51.204;6.536;2023-06-14T08:31:02;4.30;;;1.90;;
74658;SDS011;63186;51.204;6.536;2023-06-14T08:33:27;2.78;;;1.40;;
74658;SDS011;63186;51.204;6.536;2023-06-14T08:35:53;4.13;;;1.30;;
74658;SDS011;63186;51.204;6.536;2023-06-14T08:38:18;3.13;;;1.23;;
74658;SDS011;63186;51.204;6.536;2023-06-14T08:40:44;3.70;;;1.03;;
74658;SDS011;63186;51.204;6.536;2023-06-14T08:43:12;4.22;;;1.17;;
74658;SDS011;63186;51.204;6.536;2023-06-14T08:45:38;3.70;;;1.60;;
74658;SDS011;63186;51.204;6.536;2023-06-14T08:48:03;5.13;;;1.20;;
74658;SDS011;63186;51.204;6.536;2023-06-14T08:50:31;2.70;;;1.13;;
74658;SDS011;63186;51.204;6.536;2023-06-14T08:52:59;2.85;;;1.23;;
74658;SDS011;63186;51.204;6.536;2023-06-14T08:55:27;3.00;;;1.23;;
74658;SDS011;63186;51.204;6.536;2023-06-14T08:57:56;1.98;;;1.20;;
74658;SDS011;63186;51.204;6.536;2023-06-14T09:00:22;2.67;;;1.20;;
74658;SDS011;63186;51.204;6.536;2023-06-14T09:02:49;1.67;;;1.05;;
74658;SDS011;63186;51.204;6.536;2023-06-14T09:05:20;5.05;;;1.50;;
74658;SDS011;63186;51.204;6.536;2023-06-14T09:07:46;4.00;;;1.60;;
74658;SDS011;63186;51.204;6.536;2023-06-14T09:10:14;3.65;;;1.45;;
74658;SDS011;63186;51.204;6.536;2023-06-14T09:12:40;2.72;;;1.20;;
74658;SDS011;63186;51.204;6.536;2023-06-14T09:15:06;3.95;;;1.50;;
74658;SDS011;63186;51.204;6.536;2023-06-14T09:17:34;3.05;;;1.40;;
74658;SDS011;63186;51.204;6.536;2023-06-14T09:20:00;3.75;;;1.30;;
74658;SDS011;63186;51.204;6.536;2023-06-14T09:22:31;5.88;;;1.70;;
74658;SDS011;63186;51.204;6.536;2023-06-14T09:24:57;4.53;;;1.40;;
74658;SDS011;63186;51.204;6.536;2023-06-14T09:27:22;4.07;;;1.55;;
74658;SDS011;63186;51.204;6.536;2023-06-14T09:29:48;4.47;;;1.40;;
74658;SDS011;63186;51.204;6.536;2023-06-14T09:32:13;2.17;;;1.17;;
74658;SDS011;63186;51.204;6.536;2023-06-14T09:34:39;4.30;;;1.77;;
74658;SDS011;63186;51.204;6.536;2023-06-14T09:37:05;2.55;;;1.13;;
74658;SDS011;63186;51.204;6.536;2023-06-14T09:39:31;3.38;;;1.48;;
74658;SDS011;63186;51.204;6.536;2023-06-14T09:41:56;5.23;;;1.60;;
74658;SDS011;63186;51.204;6.536;2023-06-14T09:44:21;1.60;;;1.20;;
74658;SDS011;63186;51.204;6.536;2023-06-14T09:46:53;4.53;;;1.30;;
74658;SDS011;63186;51.204;6.536;2023-06-14T09:49:20;6.15;;;1.50;;
74658;SDS011;63186;51.204;6.536;2023-06-14T09:51:45;2.07;;;1.30;;
74658;SDS011;63186;51.204;6.536;2023-06-14T09:54:16;3.78;;;1.58;;
74658;SDS011;63186;51.204;6.536;2023-06-14T09:56:44;3.33;;;1.50;;
74658;SDS011;63186;51.204;6.536;2023-06-14T09:59:12;1.88;;;1.20;;
74658;SDS011;63186;51.204;6.536;2023-06-14T10:01:41;2.40;;;1.20;;
74658;SDS011;63186;51.204;6.536;2023-06-14T10:04:07;2.95;;;1.75;;
74658;SDS011;63186;51.204;6.536;2023-06-14T10:06:36;2.95;;;1.33;;
74658;SDS011;63186;51.204;6.536;2023-06-14T10:09:04;4.40;;;1.70;;
74658;SDS011;63186;51.204;6.536;2023-06-14T10:11:32;5.47;;;1.83;;
74658;SDS011;63186;51.204;6.536;2023-06-14T10:14:00;4.07;;;1.77;;
74658;SDS011;63186;51.204;6.536;2023-06-14T10:19:21;5.40;;;1.88;;
74658;SDS011;63186;51.204;6.536;2023-06-14T10:24:32;2.80;;;1.35;;
74658;SDS011;63186;51.204;6.536;2023-06-14T10:29:27;3.47;;;1.73;;
74658;SDS011;63186;51.204;6.536;2023-06-14T10:31:57;3.92;;;1.63;;
74658;SDS011;63186;51.204;6.536;2023-06-14T10:34:27;5.85;;;2.00;;
74658;SDS011;63186;51.204;6.536;2023-06-14T10:37:13;2.92;;;1.45;;
74658;SDS011;63186;51.204;6.536;2023-06-14T10:39:42;3.75;;;1.73;;
74658;SDS011;63186;51.204;6.536;2023-06-14T10:42:10;5.38;;;1.73;;
74658;SDS011;63186;51.204;6.536;2023-06-14T10:44:49;2.97;;;1.60;;
74658;SDS011;63186;51.204;6.536;2023-06-14T10:47:20;3.58;;;1.60;;
74658;SDS011;63186;51.204;6.536;2023-06-14T10:49:49;2.58;;;1.38;;
74658;SDS011;63186;51.204;6.536;2023-06-14T10:52:17;6.00;;;1.70;;
74658;SDS011;63186;51.204;6.536;2023-06-14T10:57:36;3.28;;;1.40;;
74658;SDS011;63186;51.204;6.536;2023-06-14T11:00:04;2.22;;;1.30;;
74658;SDS011;63186;51.204;6.536;2023-06-14T11:02:48;5.45;;;1.50;;
74658;SDS011;63186;51.204;6.536;2023-06-14T11:05:24;2.97;;;1.40;;
74658;SDS011;63186;51.204;6.536;2023-06-14T11:10:43;2.42;;;1.20;;
74658;SDS011;63186;51.204;6.536;2023-06-14T11:13:10;2.40;;;1.10;;
74658;SDS011;63186;51.204;6.536;2023-06-14T11:15:37;2.90;;;1.38;;
74658;SDS011;63186;51.204;6.536;2023-06-14T11:18:04;4.80;;;1.33;;
74658;SDS011;63186;51.204;6.536;2023-06-14T11:20:35;5.10;;;1.65;;
74658;SDS011;63186;51.204;6.536;2023-06-14T11:23:01;2.38;;;1.30;;
74658;SDS011;63186;51.204;6.536;2023-06-14T11:25:28;1.90;;;1.10;;
74658;SDS011;63186;51.204;6.536;2023-06-14T11:27:53;4.55;;;1.33;;
74658;SDS011;63186;51.204;6.536;2023-06-14T11:30:19;3.42;;;1.30;;
74658;SDS011;63186;51.204;6.536;2023-06-14T11:32:48;2.13;;;1.35;;
74658;SDS011;63186;51.204;6.536;2023-06-14T11:35:15;2.25;;;1.33;;
74658;SDS011;63186;51.204;6.536;2023-06-14T11:37:41;2.38;;;1.30;;
74658;SDS011;63186;51.204;6.536;2023-06-14T11:40:07;3.88;;;1.33;;
74658;SDS011;63186;51.204;6.536;2023-06-14T11:42:34;5.00;;;1.38;;
74658;SDS011;63186;51.204;6.536;2023-06-14T11:45:00;2.05;;;1.27;;
74658;SDS011;63186;51.204;6.536;2023-06-14T11:47:33;3.03;;;1.35;;
74658;SDS011;63186;51.204;6.536;2023-06-14T11:50:02;4.78;;;1.40;;
74658;SDS011;63186;51.204;6.536;2023-06-14T11:52:28;4.15;;;1.95;;
74658;SDS011;63186;51.204;6.536;2023-06-14T11:54:53;3.03;;;1.38;;
74658;SDS011;63186;51.204;6.536;2023-06-14T11:57:19;6.55;;;1.80;;
74658;SDS011;63186;51.204;6.536;2023-06-14T11:59:45;4.85;;;1.50;;
74658;SDS011;63186;51.204;6.536;2023-06-14T12:02:17;3.00;;;1.55;;
74658;SDS011;63186;51.204;6.536;2023-06-14T12:04:46;6.80;;;1.70;;
74658;SDS011;63186;51.204;6.536;2023-06-14T12:07:13;3.50;;;1.50;;
74658;SDS011;63186;51.204;6.536;2023-06-14T12:09:42;3.53;;;1.63;;
74658;SDS011;63186;51.204;6.536;2023-06-14T12:12:28;3.28;;;1.88;;
74658;SDS011;63186;51.204;6.536;2023-06-14T12:14:55;4.90;;;1.80;;
74658;SDS011;63186;51.204;6.536;2023-06-14T12:17:21;5.25;;;1.83;;
74658;SDS011;63186;51.204;6.536;2023-06-14T12:19:48;4.57;;;1.73;;
74658;SDS011;63186;51.204;6.536;2023-06-14T12:22:14;3.97;;;1.45;;
74658;SDS011;63186;51.204;6.536;2023-06-14T12:24:43;3.50;;;1.65;;
74658;SDS011;63186;51.204;6.536;2023-06-14T12:27:09;3.40;;;1.58;;
74658;SDS011;63186;51.204;6.536;2023-06-14T12:29:37;3.38;;;1.50;;
74658;SDS011;63186;51.204;6.536;2023-06-14T12:32:03;3.38;;;1.35;;
74658;SDS011;63186;51.204;6.536;2023-06-14T12:34:28;3.92;;;1.70;;
74658;SDS011;63186;51.204;6.536;2023-06-14T12:36:54;5.77;;;1.70;;
74658;SDS011;63186;51.204;6.536;2023-06-14T12:39:19;2.95;;;1.40;;
74658;SDS011;63186;51.204;6.536;2023-06-14T12:41:45;3.83;;;1.70;;
74658;SDS011;63186;51.204;6.536;2023-06-14T12:44:11;2.72;;;1.30;;
74658;SDS011;63186;51.204;6.536;2023-06-14T12:46:37;5.05;;;1.50;;
74658;SDS011;63186;51.204;6.536;2023-06-14T12:49:04;2.88;;;1.50;;
74658;SDS011;63186;51.204;6.536;2023-06-14T12:51:30;4.22;;;1.63;;
74658;SDS011;63186;51.204;6.536;2023-06-14T12:53:55;3.35;;;1.50;;
74658;SDS011;63186;51.204;6.536;2023-06-14T12:56:21;4.00;;;2.10;;
74658;SDS011;63186;51.204;6.536;2023-06-14T12:58:46;3.38;;;1.60;;
74658;SDS011;63186;51.204;6.536;2023-06-14T13:01:11;3.50;;;1.50;;
74658;SDS011;63186;51.204;6.536;2023-06-14T13:03:37;3.03;;;1.40;;
74658;SDS011;63186;51.204;6.536;2023-06-14T13:06:02;3.23;;;1.43;;
74658;SDS011;63186;51.204;6.536;2023-06-14T13:08:29;2.42;;;1.30;;
74658;SDS011;63186;51.204;6.536;2023-06-14T13:10:55;3.05;;;1.30;;
74658;SDS011;63186;51.204;6.536;2023-06-14T13:13:20;2.80;;;1.40;;
74658;SDS011;63186;51.204;6.536;2023-06-14T13:15:45;2.87;;;1.43;;
74658;SDS011;63186;51.204;6.536;2023-06-14T13:18:11;4.70;;;1.48;;
74658;SDS011;63186;51.204;6.536;2023-06-14T13:20:38;3.28;;;1.40;;
74658;SDS011;63186;51.204;6.536;2023-06-14T13:23:04;2.72;;;1.40;;
74658;SDS011;63186;51.204;6.536;2023-06-14T13:27:57;7.50;;;2.13;;
74658;SDS011;63186;51.204;6.536;2023-06-14T13:30:22;4.57;;;1.40;;
74658;SDS011;63186;51.204;6.536;2023-06-14T13:32:48;2.37;;;1.37;;
74658;SDS011;63186;51.204;6.536;2023-06-14T13:35:13;3.20;;;1.33;;
74658;SDS011;63186;51.204;6.536;2023-06-14T13:37:38;2.97;;;1.53;;
74658;SDS011;63186;51.204;6.536;2023-06-14T13:40:04;2.20;;;1.25;;
74658;SDS011;63186;51.204;6.536;2023-06-14T13:42:30;5.88;;;1.58;;
74658;SDS011;63186;51.204;6.536;2023-06-14T13:44:57;3.28;;;1.45;;
74658;SDS011;63186;51.204;6.536;2023-06-14T13:47:23;2.28;;;1.45;;
74658;SDS011;63186;51.204;6.536;2023-06-14T13:49:48;1.70;;;1.10;;
74658;SDS011;63186;51.204;6.536;2023-06-14T13:52:13;3.30;;;1.40;;
74658;SDS011;63186;51.204;6.536;2023-06-14T13:54:38;5.47;;;1.60;;
74658;SDS011;63186;51.204;6.536;2023-06-14T13:57:04;2.40;;;1.40;;
74658;SDS011;63186;51.204;6.536;2023-06-14T13:59:29;2.80;;;1.50;;
74658;SDS011;63186;51.204;6.536;2023-06-14T14:01:54;3.03;;;1.40;;
74658;SDS011;63186;51.204;6.536;2023-06-14T14:04:20;4.53;;;1.50;;
74658;SDS011;63186;51.204;6.536;2023-06-14T14:06:45;4.93;;;1.60;;
74658;SDS011;63186;51.204;6.536;2023-06-14T14:09:11;2.78;;;1.52;;
74658;SDS011;63186;51.204;6.536;2023-06-14T14:11:36;3.88;;;1.63;;
74658;SDS011;63186;51.204;6.536;2023-06-14T14:14:02;3.92;;;1.58;;
74658;SDS011;63186;51.204;6.536;2023-06-14T14:16:27;5.07;;;1.73;;
74658;SDS011;63186;51.204;6.536;2023-06-14T14:18:52;4.22;;;1.45;;
74658;SDS011;63186;51.204;6.536;2023-06-14T14:21:18;3.17;;;1.40;;
74658;SDS011;63186;51.204;6.536;2023-06-14T14:23:43;3.50;;;1.67;;
74658;SDS011;63186;51.204;6.536;2023-06-14T14:26:10;3.63;;;1.73;;
74658;SDS011;63186;51.204;6.536;2023-06-14T14:28:35;4.40;;;1.90;;
74658;SDS011;63186;51.204;6.536;2023-06-14T14:31:01;4.93;;;1.80;;
74658;SDS011;63186;51.204;6.536;2023-06-14T14:33:26;3.90;;;1.83;;
74658;SDS011;63186;51.204;6.536;2023-06-14T14:35:52;2.67;;;1.70;;
74658;SDS011;63186;51.204;6.536;2023-06-14T14:38:17;4.57;;;2.15;;
74658;SDS011;63186;51.204;6.536;2023-06-14T14:40:43;4.37;;;2.10;;
74658;SDS011;63186;51.204;6.536;2023-06-14T14:43:09;3.83;;;1.80;;
74658;SDS011;63186;51.204;6.536;2023-06-14T14:45:34;3.35;;;1.85;;
74658;SDS011;63186;51.204;6.536;2023-06-14T14:48:00;3.90;;;2.00;;
74658;SDS011;63186;51.204;6.536;2023-06-14T14:50:27;3.05;;;1.83;;
74658;SDS011;63186;51.204;6.536;2023-06-14T14:52:52;2.90;;;1.90;;
74658;SDS011;63186;51.204;6.536;2023-06-14T14:55:17;3.33;;;1.80;;
74658;SDS011;63186;51.204;6.536;2023-06-14T14:57:43;4.00;;;2.10;;
74658;SDS011;63186;51.204;6.536;2023-06-14T15:00:09;3.95;;;1.70;;
74658;SDS011;63186;51.204;6.536;2023-06-14T15:02:34;3.75;;;1.88;;
74658;SDS011;63186;51.204;6.536;2023-06-14T15:04:59;4.68;;;1.90;;
74658;SDS011;63186;51.204;6.536;2023-06-14T15:07:28;5.68;;;2.05;;